Time;durP1;ratioP1;P1;durP2;ratioP2;P2;SDS_P1;SDS_P2;PMS_P1;PMS_P2;Temp;Humidity;BMP_temperature;BMP_pressure;BME280_temperature;BME280_humidity;BME280_pressure;Samples;Min_cycle;Max_cycle;Signal;HPM_P1;HPM_P2
2022/07/23 00:19:41;;;;;;;8.30;2.67;;;14.20;99.90;;;;;;6222022;23;20032;-96
2022/07/23 00:22:10;;;;;;;8.98;2.92;;;14.80;99.90;;;;;;6240627;23;20013;-96
2022/07/23 00:24:36;;;;;;;9.02;2.55;;;14.10;99.90;;;;;;6214691;23;20012;-96
2022/07/23 00:27:31;;;;;;;7.78;2.70;;;14.10;99.90;;;;;;6239858;23;20015;-96
2022/07/23 00:30:13;;;;;;;11.93;2.70;;;14.10;99.90;;;;;;6237513;23;20372;-96
2022/07/23 00:33:07;;;;;;;7.03;2.67;;;15.00;99.90;;;;;;6218388;23;20009;-96
2022/07/23 00:35:36;;;;;;;8.30;2.80;;;13.20;99.90;;;;;;6216434;23;20017;-96
2022/07/23 00:38:02;;;;;;;8.52;2.60;;;13.90;99.90;;;;;;6187620;23;20022;-96
2022/07/23 00:44:31;;;;;;;6.57;2.40;;;13.90;99.90;;;;;;6223041;23;20117;-96
2022/07/23 01:01:58;;;;;;;8.60;2.65;;;13.40;99.90;;;;;;6105677;23;20025;-96
2022/07/23 01:04:23;;;;;;;9.45;2.90;;;13.30;99.90;;;;;;6212044;23;20045;-96
2022/07/23 01:28:54;;;;;;;10.40;3.10;;;13.00;99.90;;;;;;6156085;23;20040;-91
2022/07/23 01:31:20;;;;;;;9.43;3.47;;;12.90;99.90;;;;;;6189148;23;20017;-96
2022/07/23 01:37:30;;;;;;;9.25;3.20;;;12.90;99.90;;;;;;6210204;23;20019;-96
2022/07/23 01:39:56;;;;;;;8.02;2.95;;;13.00;99.90;;;;;;6205423;23;20076;-96
2022/07/23 01:42:23;;;;;;;8.88;3.20;;;13.20;99.90;;;;;;6181713;23;20071;-96
2022/07/23 01:45:07;;;;;;;8.85;3.72;;;13.00;99.90;;;;;;6180745;23;20009;-96
2022/07/23 01:47:33;;;;;;;9.07;3.40;;;13.00;99.90;;;;;;6188573;23;20005;-96
2022/07/23 01:49:59;;;;;;;8.95;3.22;;;13.60;99.90;;;;;;6183703;23;20028;-96
2022/07/23 01:52:46;;;;;;;9.55;3.60;;;13.90;99.90;;;;;;6177363;23;20017;-96
2022/07/23 01:55:13;;;;;;;7.95;3.30;;;13.40;99.90;;;;;;6183467;23;20016;-96
2022/07/23 02:01:56;;;;;;;10.13;3.00;;;13.30;99.90;;;;;;6233984;23;20135;-96
2022/07/23 02:04:23;;;;;;;10.10;3.20;;;13.40;99.90;;;;;;6210654;23;20048;-96
2022/07/23 02:07:11;;;;;;;7.95;3.20;;;13.30;99.90;;;;;;6208282;23;20013;-96
2022/07/23 02:09:36;;;;;;;9.25;3.35;;;13.30;99.90;;;;;;6213999;23;20028;-96
2022/07/23 02:12:03;;;;;;;8.63;3.30;;;13.10;99.90;;;;;;6210171;23;20528;-96
2022/07/23 02:14:46;;;;;;;8.80;3.65;;;13.30;99.90;;;;;;6206603;23;20017;-96
2022/07/23 02:17:12;;;;;;;9.45;3.50;;;13.80;99.90;;;;;;6207920;23;20049;-96
2022/07/23 02:19:38;;;;;;;10.23;3.55;;;14.30;99.90;;;;;;6238519;23;20052;-96
2022/07/23 02:22:19;;;;;;;8.20;3.60;;;12.60;99.90;;;;;;6213154;23;20024;-96
2022/07/23 02:24:48;;;;;;;12.32;3.72;;;13.00;99.90;;;;;;6242132;23;20016;-96
2022/07/23 02:28:05;;;;;;;8.45;3.33;;;13.20;99.90;;;;;;6242667;23;19999;-96
2022/07/23 02:30:30;;;;;;;10.27;3.67;;;13.10;99.90;;;;;;6218170;23;20219;-96
2022/07/23 02:35:47;;;;;;;9.48;3.60;;;13.00;99.90;;;;;;6216737;23;20047;-96
2022/07/23 02:38:13;;;;;;;8.68;3.75;;;12.10;99.90;;;;;;6196176;23;20081;-96
2022/07/23 02:40:39;;;;;;;8.35;3.58;;;12.20;99.90;;;;;;6206821;23;20090;-96
2022/07/23 02:43:05;;;;;;;9.80;4.10;;;13.40;99.90;;;;;;6209800;23;20068;-96
2022/07/23 02:45:49;;;;;;;8.85;3.83;;;12.80;99.90;;;;;;6214321;23;20017;-95
2022/07/23 02:48:21;;;;;;;10.73;3.40;;;13.30;99.90;;;;;;6212038;23;20185;-96
2022/07/23 02:50:47;;;;;;;9.15;3.50;;;12.50;99.90;;;;;;6238582;23;20020;-96
2022/07/23 02:53:12;;;;;;;10.30;3.92;;;12.40;99.90;;;;;;6235516;23;20537;-96
2022/07/23 02:55:55;;;;;;;10.55;3.83;;;12.80;99.90;;;;;;6192293;23;20456;-96
2022/07/23 02:58:26;;;;;;;7.93;3.10;;;12.50;99.90;;;;;;6167086;23;20028;-96
2022/07/23 03:18:47;;;;;;;9.40;3.70;;;12.20;99.90;;;;;;6180951;23;20053;-96
2022/07/23 03:39:15;;;;;;;9.85;3.35;;;12.00;99.90;;;;;;6160647;23;20032;-96
2022/07/23 03:47:52;;;;;;;9.30;3.92;;;11.90;99.90;;;;;;6163605;23;20012;-96
2022/07/23 03:50:37;;;;;;;10.80;3.60;;;11.80;99.90;;;;;;6184042;23;20081;-96
2022/07/23 03:53:03;;;;;;;10.40;4.05;;;11.90;99.90;;;;;;6189484;23;20089;-96
2022/07/23 03:55:44;;;;;;;9.15;3.95;;;11.80;99.90;;;;;;6186745;23;20083;-96
2022/07/23 04:03:24;;;;;;;10.90;3.83;;;11.70;99.90;;;;;;6177376;23;20049;-96
2022/07/23 04:05:50;;;;;;;9.93;4.45;;;12.30;99.90;;;;;;6159793;23;20025;-96
2022/07/23 04:12:01;;;;;;;10.82;4.20;;;11.30;99.90;;;;;;6177827;23;20040;-96
2022/07/23 04:14:27;;;;;;;12.73;4.60;;;11.90;99.90;;;;;;6160376;23;20040;-96
2022/07/23 04:16:53;;;;;;;11.73;4.35;;;11.80;99.90;;;;;;6187507;23;20017;-96
2022/07/23 04:19:41;;;;;;;11.80;4.22;;;11.60;99.90;;;;;;6185597;23;20009;-96
2022/07/23 04:22:21;;;;;;;11.90;4.45;;;11.70;99.90;;;;;;6213512;23;20079;-96
2022/07/23 04:24:50;;;;;;;10.57;4.55;;;11.70;99.90;;;;;;6213230;23;20064;-96
2022/07/23 04:48:05;;;;;;;12.30;5.88;;;12.30;99.90;;;;;;6152874;23;20009;-96
2022/07/23 04:50:43;;;;;;;12.68;5.32;;;12.40;99.90;;;;;;6120979;23;20034;-96
2022/07/23 04:53:09;;;;;;;11.60;5.20;;;12.90;99.90;;;;;;6120140;23;20041;-96
2022/07/23 04:55:35;;;;;;;13.15;4.63;;;12.60;99.90;;;;;;6120626;23;20040;-96
2022/07/23 04:58:24;;;;;;;11.65;5.47;;;12.60;99.90;;;;;;6122800;23;20025;-96
2022/07/23 05:00:50;;;;;;;14.77;5.22;;;12.70;99.90;;;;;;6123637;23;20056;-96
2022/07/23 05:03:49;;;;;;;13.65;5.22;;;13.40;99.90;;;;;;6119443;23;20025;-96
2022/07/23 05:06:27;;;;;;;10.13;4.78;;;12.90;99.90;;;;;;6051482;23;20029;-96
2022/07/23 05:08:56;;;;;;;13.52;5.05;;;13.40;99.90;;;;;;6115666;23;20041;-96
2022/07/23 05:11:22;;;;;;;13.57;5.00;;;12.90;99.90;;;;;;6113244;23;20018;-96
2022/07/23 05:13:47;;;;;;;10.45;4.80;;;12.70;99.90;;;;;;6112187;23;20018;-92
2022/07/23 05:16:26;;;;;;;9.82;4.55;;;13.40;99.90;;;;;;6109174;23;20075;-89
2022/07/23 05:18:51;;;;;;;11.65;4.70;;;13.60;99.90;;;;;;6126371;23;20060;-80
2022/07/23 05:21:17;;;;;;;11.05;4.10;;;13.40;99.90;;;;;;6126396;23;20014;-81
2022/07/23 05:23:48;;;;;;;10.63;4.05;;;13.30;99.90;;;;;;6099088;23;20018;-81
2022/07/23 05:26:14;;;;;;;9.45;3.97;;;12.90;99.90;;;;;;6126453;23;20346;-82
2022/07/23 05:28:40;;;;;;;10.15;3.65;;;14.10;99.90;;;;;;6126726;23;20014;-81
2022/07/23 05:31:07;;;;;;;12.25;3.88;;;13.40;99.90;;;;;;6125675;23;20022;-81
2022/07/23 05:33:32;;;;;;;11.05;4.03;;;13.70;99.90;;;;;;6127976;23;20014;-81
2022/07/23 05:36:02;;;;;;;10.00;3.95;;;13.60;99.90;;;;;;6100426;23;20342;-81
2022/07/23 05:38:28;;;;;;;9.68;3.72;;;13.70;99.90;;;;;;6100711;23;20456;-81
2022/07/23 05:40:54;;;;;;;10.43;4.03;;;13.70;99.90;;;;;;6126690;23;20331;-80
2022/07/23 05:43:20;;;;;;;11.00;3.03;;;13.80;99.90;;;;;;6101648;23;20028;-80
2022/07/23 05:45:46;;;;;;;13.18;3.42;;;13.90;99.90;;;;;;6099813;23;20374;-80
2022/07/23 05:48:11;;;;;;;9.20;3.53;;;14.00;99.90;;;;;;6128667;23;20021;-83
2022/07/23 05:50:37;;;;;;;8.43;3.45;;;14.10;99.90;;;;;;6128616;23;20022;-85
2022/07/23 05:53:02;;;;;;;10.65;3.42;;;14.10;99.90;;;;;;6101957;23;20022;-83
2022/07/23 05:55:31;;;;;;;10.35;3.40;;;14.20;99.90;;;;;;6103307;23;20454;-82
2022/07/23 05:57:58;;;;;;;10.70;3.13;;;14.30;99.90;;;;;;6101806;23;20010;-84
2022/07/23 06:00:25;;;;;;;11.00;3.13;;;14.40;99.90;;;;;;6130663;23;20101;-84
2022/07/23 06:02:50;;;;;;;9.52;3.45;;;14.40;99.90;;;;;;6129498;23;20510;-85
2022/07/23 06:05:16;;;;;;;9.02;3.08;;;14.50;99.90;;;;;;6104965;23;20018;-85
2022/07/23 06:07:42;;;;;;;10.48;3.60;;;14.90;99.90;;;;;;6101924;23;20018;-85
2022/07/23 06:10:36;;;;;;;11.27;3.58;;;15.00;99.90;;;;;;6103579;23;20026;-85
2022/07/23 06:13:20;;;;;;;9.63;3.35;;;14.60;99.90;;;;;;6107998;23;20061;-85
2022/07/23 06:16:10;;;;;;;9.65;3.50;;;15.50;99.90;;;;;;6198955;23;20016;-84
2022/07/23 06:18:45;;;;;;;8.65;3.45;;;14.80;99.90;;;;;;6248722;23;20340;-86
2022/07/23 06:21:14;;;;;;;10.98;3.35;;;15.80;99.90;;;;;;6222950;23;20027;-85
2022/07/23 06:23:39;;;;;;;10.85;3.67;;;15.80;99.90;;;;;;6220671;23;20365;-85
2022/07/23 06:26:56;;;;;;;12.13;3.65;;;15.60;99.90;;;;;;6218554;23;20091;-86
2022/07/23 06:29:42;;;;;;;11.75;3.40;;;14.90;99.90;;;;;;6248037;23;20016;-84
2022/07/23 06:32:26;;;;;;;7.88;3.13;;;15.80;99.90;;;;;;6220073;23;20016;-83
2022/07/23 06:34:51;;;;;;;7.95;2.92;;;15.10;99.90;;;;;;6220711;23;20039;-84
2022/07/23 06:37:17;;;;;;;8.07;3.03;;;15.40;99.90;;;;;;6221180;23;20020;-84
2022/07/23 06:39:43;;;;;;;10.80;3.08;;;16.20;99.90;;;;;;6248230;23;20050;-84
2022/07/23 06:42:24;;;;;;;7.22;2.72;;;15.70;99.90;;;;;;6220464;23;20037;-85
2022/07/23 06:44:49;;;;;;;10.10;2.67;;;15.40;99.90;;;;;;6247566;23;20044;-83
2022/07/23 06:47:33;;;;;;;7.55;2.60;;;16.40;99.90;;;;;;6222772;23;20023;-83
2022/07/23 06:50:14;;;;;;;;;;;16.50;99.90;;;;;;6221691;23;20016;-85
2022/07/23 06:52:40;;;;;;;9.57;3.05;;;15.60;99.90;;;;;;6250149;23;19916;-84
2022/07/23 06:55:06;;;;;;;9.88;2.50;;;16.50;99.90;;;;;;6220592;23;20097;-84
2022/07/23 06:57:44;;;;;;;6.03;2.10;;;15.80;99.90;;;;;;6222467;23;20078;-84
2022/07/23 07:00:22;;;;;;;6.30;2.28;;;16.10;99.90;;;;;;6221367;23;20012;-82
2022/07/23 07:02:47;;;;;;;6.18;2.03;;;16.40;99.90;;;;;;6246826;23;20456;-85
2022/07/23 07:05:13;;;;;;;6.80;2.22;;;16.20;99.90;;;;;;6247911;23;20070;-85
2022/07/23 07:07:38;;;;;;;5.47;1.80;;;16.30;99.90;;;;;;6221765;23;20051;-84
2022/07/23 07:10:04;;;;;;;9.30;2.33;;;16.40;99.90;;;;;;6248281;23;20020;-84
2022/07/23 07:12:30;;;;;;;7.00;2.17;;;16.40;99.90;;;;;;6252221;23;20131;-84
2022/07/23 07:14:59;;;;;;;6.80;1.92;;;16.50;99.90;;;;;;6250690;23;20016;-85
2022/07/23 07:17:24;;;;;;;6.47;2.10;;;16.70;99.90;;;;;;6221794;23;20527;-84
2022/07/23 07:19:50;;;;;;;5.63;1.92;;;16.80;99.90;;;;;;6247551;23;20084;-84
2022/07/23 07:22:16;;;;;;;6.60;2.08;;;16.90;99.90;;;;;;6221830;23;20016;-84
2022/07/23 07:24:41;;;;;;;6.10;2.10;;;17.00;99.90;;;;;;6221235;23;20028;-84
2022/07/23 07:27:07;;;;;;;5.25;2.00;;;17.10;99.90;;;;;;6221946;23;20012;-84
2022/07/23 07:29:33;;;;;;;7.32;2.00;;;17.10;99.90;;;;;;6220409;23;20028;-85
2022/07/23 07:31:58;;;;;;;5.85;1.90;;;17.20;99.90;;;;;;6246698;23;20063;-84
2022/07/23 07:34:24;;;;;;;6.53;2.20;;;17.40;99.90;;;;;;6248036;23;20249;-84
2022/07/23 07:37:41;;;;;;;6.28;1.80;;;17.20;99.90;;;;;;6235010;23;20000;-84
2022/07/23 07:40:11;;;;;;;6.78;1.90;;;17.30;99.90;;;;;;6240431;23;20437;-83
2022/07/23 07:42:59;;;;;;;4.90;2.00;;;17.60;99.90;;;;;;6167096;23;20087;-84
2022/07/23 07:46:09;;;;;;;6.18;1.90;;;17.50;99.90;;;;;;6253832;23;20019;-84
2022/07/23 07:48:54;;;;;;;6.30;2.00;;;18.40;99.90;;;;;;6225510;23;20027;-84
2022/07/23 07:51:22;;;;;;;7.05;1.83;;;17.80;99.90;;;;;;6252547;23;20028;-84
2022/07/23 07:54:00;;;;;;;8.02;1.95;;;17.70;99.90;;;;;;6224594;23;20019;-84
2022/07/23 07:56:36;;;;;;;5.75;1.98;;;17.70;99.90;;;;;;6250542;23;20360;-84
2022/07/23 07:59:02;;;;;;;4.47;1.70;;;18.00;99.90;;;;;;6244234;23;20020;-85
2022/07/23 08:01:53;;;;;;;8.48;2.08;;;18.40;99.90;;;;;;6214861;23;20068;-84
2022/07/23 08:04:34;;;;;;;6.35;1.70;;;17.90;99.90;;;;;;6217516;23;20440;-84
2022/07/23 08:07:15;;;;;;;4.18;1.60;;;19.00;99.90;;;;;;6243727;23;20427;-84
2022/07/23 08:09:47;;;;;;;4.47;1.60;;;18.50;99.90;;;;;;6244991;23;20019;-84
2022/07/23 08:12:25;;;;;;;5.70;1.70;;;18.30;99.90;;;;;;6217292;23;20019;-84
2022/07/23 08:15:07;;;;;;;4.20;1.52;;;18.20;99.90;;;;;;6217816;23;20091;-84
2022/07/23 08:17:55;;;;;;;5.38;1.60;;;18.60;99.90;;;;;;6211679;23;20318;-84
2022/07/23 08:20:43;;;;;;;5.50;1.65;;;18.80;99.90;;;;;;6121210;23;20026;-84
2022/07/23 08:23:09;;;;;;;4.93;1.83;;;18.80;99.90;;;;;;6098942;23;20190;-84
2022/07/23 08:25:56;;;;;;;7.82;2.00;;;19.10;99.90;;;;;;6099758;23;20049;-84
2022/07/23 08:28:23;;;;;;;5.55;1.70;;;19.20;99.90;;;;;;6099233;23;20105;-85
2022/07/23 08:30:49;;;;;;;5.45;1.73;;;19.30;99.90;;;;;;6124150;23;20022;-84
2022/07/23 08:33:33;;;;;;;4.28;1.52;;;20.20;99.90;;;;;;6099760;23;20072;-84
2022/07/23 08:35:59;;;;;;;3.22;1.50;;;19.30;99.90;;;;;;6099398;23;20060;-85
2022/07/23 08:38:32;;;;;;;5.40;1.50;;;19.50;99.90;;;;;;6097668;23;20018;-85
2022/07/23 08:41:07;;;;;;;4.40;1.60;;;20.10;99.90;;;;;;6098700;23;20058;-85
2022/07/23 08:43:35;;;;;;;5.45;1.98;;;19.80;99.90;;;;;;6099360;23;20014;-86
2022/07/23 08:46:06;;;;;;;5.05;1.65;;;19.80;99.90;;;;;;6099623;23;20029;-86
2022/07/23 08:48:48;;;;;;;4.88;1.65;;;19.70;99.90;;;;;;6128331;23;20033;-85
2022/07/23 08:51:26;;;;;;;5.95;1.75;;;19.70;99.90;;;;;;6190557;23;20336;-89
2022/07/23 08:54:04;;;;;;;6.25;1.70;;;20.00;99.90;;;;;;6246854;23;20015;-83
2022/07/23 08:56:45;;;;;;;3.92;1.58;;;19.40;99.90;;;;;;6218936;23;20016;-83
2022/07/23 08:59:13;;;;;;;5.05;1.50;;;20.10;99.90;;;;;;6246429;23;20086;-83
2022/07/23 09:02:03;;;;;;;3.33;1.50;;;19.50;99.90;;;;;;6217685;23;20016;-83
2022/07/23 09:04:44;;;;;;;4.57;1.63;;;20.30;99.90;;;;;;6246831;23;20062;-84
2022/07/23 09:07:10;;;;;;;5.43;1.60;;;20.40;99.90;;;;;;6246796;23;20436;-85
2022/07/23 09:09:36;;;;;;;6.25;1.63;;;19.80;99.90;;;;;;6218596;23;20103;-84
2022/07/23 09:12:14;;;;;;;5.88;1.60;;;20.20;99.90;;;;;;6218772;23;20028;-85
2022/07/23 09:14:49;;;;;;;3.25;1.50;;;19.40;99.90;;;;;;6246816;23;20012;-84
2022/07/23 09:17:17;;;;;;;6.45;1.80;;;20.10;99.90;;;;;;6218803;23;20392;-85
2022/07/23 09:19:47;;;;;;;2.88;1.40;;;19.50;99.90;;;;;;6217555;23;20016;-85
2022/07/23 09:22:42;;;;;;;3.25;1.42;;;19.90;99.90;;;;;;6246699;23;20012;-84
2022/07/23 09:25:28;;;;;;;5.30;1.70;;;20.20;99.90;;;;;;6223044;23;20012;-85
2022/07/23 09:28:22;;;;;;;4.90;1.40;;;20.20;99.90;;;;;;6219187;23;20020;-85
2022/07/23 09:30:51;;;;;;;3.33;1.40;;;19.90;99.90;;;;;;6237571;23;20031;-85
2022/07/23 09:33:16;;;;;;;7.55;2.03;;;19.80;99.90;;;;;;6249390;23;20024;-85
2022/07/23 09:35:58;;;;;;;3.63;1.33;;;19.90;99.90;;;;;;6218745;23;20336;-85
2022/07/23 09:38:29;;;;;;;2.65;1.30;;;19.40;99.90;;;;;;6217669;23;20050;-84
2022/07/23 09:41:12;;;;;;;4.63;1.48;;;19.80;99.90;;;;;;6218617;23;20022;-85
2022/07/23 09:43:38;;;;;;;4.85;1.50;;;19.70;99.90;;;;;;6222114;23;20436;-84
2022/07/23 09:46:21;;;;;;;4.00;1.50;;;19.50;99.90;;;;;;6218576;23;20012;-85
2022/07/23 09:48:48;;;;;;;3.45;1.27;;;19.50;99.90;;;;;;6218571;23;20020;-85
2022/07/23 09:51:26;;;;;;;4.22;1.60;;;19.80;99.90;;;;;;6218145;23;20379;-85
2022/07/23 09:53:52;;;;;;;3.83;1.50;;;20.60;99.90;;;;;;6245908;23;20084;-85
2022/07/23 09:56:20;;;;;;;2.55;1.20;;;20.40;99.90;;;;;;6218079;23;20381;-85
2022/07/23 09:58:50;;;;;;;3.13;1.42;;;20.40;99.90;;;;;;6217595;23;20020;-87
2022/07/23 10:01:26;;;;;;;3.70;1.40;;;20.90;99.90;;;;;;6218939;23;20016;-86
2022/07/23 10:03:52;;;;;;;3.28;1.40;;;20.30;99.90;;;;;;6246593;23;20347;-86
2022/07/23 10:06:24;;;;;;;5.68;1.77;;;20.80;99.90;;;;;;6245029;23;20051;-85
2022/07/23 10:09:00;;;;;;;3.67;1.38;;;20.50;99.90;;;;;;6218155;23;20015;-84
2022/07/23 10:11:45;;;;;;;5.15;1.50;;;21.00;99.90;;;;;;6218903;23;20027;-86
2022/07/23 10:14:10;;;;;;;4.75;1.60;;;20.40;99.90;;;;;;6218534;23;20027;-85
2022/07/23 10:16:39;;;;;;;3.67;1.60;;;20.60;99.90;;;;;;6218691;23;20008;-86
2022/07/23 10:19:05;;;;;;;5.82;1.50;;;20.80;99.90;;;;;;6243675;23;20012;-86
2022/07/23 10:21:45;;;;;;;3.58;1.38;;;20.70;99.90;;;;;;6246817;23;20065;-84
2022/07/23 10:24:37;;;;;;;3.67;1.40;;;20.90;99.90;;;;;;6224604;23;20012;-84
2022/07/23 10:27:42;;;;;;;5.20;1.45;;;21.60;99.90;;;;;;6217673;23;20339;-84
2022/07/23 10:30:24;;;;;;;4.40;1.40;;;21.00;99.90;;;;;;6244975;23;20028;-84
2022/07/23 10:33:17;;;;;;;4.55;1.40;;;20.70;99.90;;;;;;6217915;23;20020;-83
2022/07/23 10:36:14;;;;;;;4.53;1.60;;;21.20;99.90;;;;;;6218119;23;20345;-84
2022/07/23 10:39:12;;;;;;;5.32;1.70;;;21.40;99.90;;;;;;6099066;23;20109;-83
2022/07/23 10:42:07;;;;;;;4.13;1.50;;;21.40;99.90;;;;;;6126380;23;20025;-83
2022/07/23 10:45:04;;;;;;;4.15;1.50;;;21.40;99.90;;;;;;6265768;23;20476;-82
2022/07/23 10:50:44;;;;;;;4.00;1.50;;;22.40;99.90;;;;;;6218693;23;20078;-83
2022/07/23 10:53:57;;;;;;;3.08;1.40;;;21.60;99.90;;;;;;6245872;23;20023;-84
2022/07/23 10:56:50;;;;;;;4.05;1.40;;;21.60;99.90;;;;;;6218037;23;20489;-84
2022/07/23 10:59:16;;;;;;;4.25;1.50;;;22.20;99.90;;;;;;6152159;23;20022;-83
2022/07/23 11:01:42;;;;;;;5.60;1.50;;;22.30;99.90;;;;;;6151082;23;20020;-83
2022/07/23 11:04:14;;;;;;;3.30;1.48;;;22.50;99.90;;;;;;6152530;23;20035;-83
2022/07/23 11:06:48;;;;;;;5.95;1.50;;;22.50;99.90;;;;;;6127389;23;20013;-83
2022/07/23 11:09:42;;;;;;;2.80;1.40;;;22.80;99.90;;;;;;6126649;23;20018;-83
2022/07/23 11:12:35;;;;;;;5.80;1.80;;;22.70;98.60;;;;;;6127595;23;20041;-83
2022/07/23 11:18:44;;;;;;;5.60;1.42;;;22.30;99.90;;;;;;6151755;23;20045;-83
2022/07/23 11:21:37;;;;;;;3.90;1.52;;;22.40;99.90;;;;;;6127060;23;20022;-83
2022/07/23 11:24:23;;;;;;;3.55;1.58;;;22.20;99.90;;;;;;6224344;23;20028;-87
2022/07/23 11:27:09;;;;;;;3.90;1.60;;;22.70;99.90;;;;;;6217637;23;20055;-82
2022/07/23 11:29:38;;;;;;;4.30;1.70;;;22.40;99.90;;;;;;6248265;23;20007;-87
2022/07/23 11:32:33;;;;;;;3.15;1.50;;;22.70;99.90;;;;;;6235707;23;20393;-86
2022/07/23 11:34:59;;;;;;;3.78;1.52;;;22.90;99.90;;;;;;6217870;23;20047;-86
2022/07/23 11:37:44;;;;;;;5.40;1.60;;;23.70;99.90;;;;;;6244485;23;20016;-86
2022/07/23 11:40:28;;;;;;;5.07;1.80;;;23.70;99.90;;;;;;6248965;23;20066;-87
2022/07/23 11:42:55;;;;;;;3.78;1.65;;;23.10;99.90;;;;;;6218396;23;20012;-86
2022/07/23 11:45:39;;;;;;;4.15;1.55;;;23.50;99.90;;;;;;6217878;23;20049;-86
2022/07/23 11:48:30;;;;;;;3.35;1.55;;;23.60;99.90;;;;;;6218371;23;20016;-86
2022/07/23 11:50:57;;;;;;;4.47;1.77;;;23.00;99.90;;;;;;6217002;23;20087;-86
2022/07/23 11:53:35;;;;;;;6.57;1.90;;;23.60;99.90;;;;;;6218601;23;20058;-86
2022/07/23 11:56:25;;;;;;;7.85;2.58;;;23.60;98.10;;;;;;6241568;23;20056;-86
2022/07/23 11:59:15;;;;;;;6.03;1.92;;;23.30;99.90;;;;;;6262012;23;20023;-86
2022/07/23 12:02:04;;;;;;;5.07;1.80;;;23.30;98.50;;;;;;6220826;23;20023;-86
2022/07/23 12:04:44;;;;;;;6.40;2.00;;;23.30;99.60;;;;;;6170706;23;20021;-86
2022/07/23 12:07:36;;;;;;;4.85;1.67;;;23.20;99.90;;;;;;6245534;23;20444;-87
2022/07/23 12:10:16;;;;;;;6.22;1.60;;;23.40;99.90;;;;;;6246562;23;20142;-83
2022/07/23 12:12:53;;;;;;;3.97;1.63;;;23.80;99.90;;;;;;6246292;23;20019;-84
2022/07/23 12:15:22;;;;;;;6.50;1.70;;;24.10;99.60;;;;;;6245212;23;20101;-80
2022/07/23 12:17:48;;;;;;;5.35;1.60;;;24.00;99.90;;;;;;6244047;23;20034;-84
2022/07/23 12:20:17;;;;;;;6.63;1.88;;;24.10;99.90;;;;;;6246184;23;20016;-83
2022/07/23 12:22:46;;;;;;;6.53;1.90;;;23.80;99.90;;;;;;6245036;23;20074;-83
2022/07/23 12:25:21;;;;;;;6.22;1.80;;;23.50;99.90;;;;;;6244710;23;20048;-84
2022/07/23 12:28:05;;;;;;;4.68;1.80;;;23.60;99.90;;;;;;6244171;23;20051;-82
2022/07/23 12:30:52;;;;;;;8.02;1.88;;;23.60;99.90;;;;;;6247017;23;20058;-83
2022/07/23 12:33:25;;;;;;;4.93;1.90;;;23.90;98.30;;;;;;6243547;23;20020;-81
2022/07/23 12:35:52;;;;;;;;;;;23.90;98.90;;;;;;6245238;23;20020;-81
2022/07/23 12:38:20;;;;;;;6.53;2.00;;;24.00;97.80;;;;;;6246397;23;20351;-81
2022/07/23 12:40:56;;;;;;;5.38;1.98;;;24.20;99.10;;;;;;6243927;23;20019;-80
2022/07/23 12:43:26;;;;;;;5.93;2.00;;;23.90;99.90;;;;;;6246960;23;20079;-81
2022/07/23 12:46:01;;;;;;;5.32;2.00;;;23.90;97.80;;;;;;6244688;23;20034;-81
2022/07/23 12:48:49;;;;;;;5.85;1.98;;;24.00;98.60;;;;;;6244334;23;20026;-82
2022/07/23 12:51:21;;;;;;;5.68;1.90;;;24.00;97.60;;;;;;6244617;23;20089;-82
2022/07/23 12:53:47;;;;;;;5.45;2.08;;;24.00;99.30;;;;;;6243747;23;20475;-82
2022/07/23 12:56:19;;;;;;;8.23;2.10;;;24.20;98.70;;;;;;6244789;23;20028;-82
2022/07/23 12:58:49;;;;;;;7.78;2.30;;;24.40;99.30;;;;;;6244391;23;20016;-82
2022/07/23 13:01:21;;;;;;;5.88;2.17;;;24.10;98.70;;;;;;6245696;23;20342;-81
2022/07/23 13:04:05;;;;;;;5.82;2.00;;;23.90;97.80;;;;;;6243654;23;20017;-81
2022/07/23 13:06:42;;;;;;;5.45;2.10;;;23.40;98.60;;;;;;6245924;23;20062;-81
2022/07/23 13:09:12;;;;;;;6.53;2.10;;;23.20;98.90;;;;;;6244906;23;20016;-81
2022/07/23 13:11:38;;;;;;;7.25;2.20;;;23.10;99.50;;;;;;6218914;23;20337;-81
2022/07/23 13:14:05;;;;;;;6.72;2.10;;;23.30;99.90;;;;;;6245667;23;20031;-81
2022/07/23 13:16:31;;;;;;;5.53;2.00;;;23.30;99.90;;;;;;6217756;23;20310;-80
2022/07/23 13:18:58;;;;;;;5.97;2.10;;;23.40;99.90;;;;;;6245746;23;20053;-81
2022/07/23 13:21:24;;;;;;;6.53;2.00;;;23.40;99.90;;;;;;6218834;23;20070;-81
2022/07/23 13:23:50;;;;;;;4.57;1.92;;;23.40;99.90;;;;;;6217849;23;20009;-81
2022/07/23 13:26:19;;;;;;;5.90;2.00;;;23.30;99.90;;;;;;6246029;23;20123;-83
2022/07/23 13:28:45;;;;;;;5.72;2.10;;;23.50;99.90;;;;;;6241449;23;20054;-82
2022/07/23 13:31:10;;;;;;;7.75;2.10;;;23.90;99.90;;;;;;6247499;23;20503;-83
2022/07/23 13:33:36;;;;;;;5.72;1.90;;;24.50;99.90;;;;;;6220679;23;20090;-82
2022/07/23 13:36:03;;;;;;;5.47;2.10;;;24.70;99.20;;;;;;6217309;23;20016;-83
2022/07/23 13:38:29;;;;;;;6.78;2.38;;;25.10;99.20;;;;;;6245937;23;20015;-82
2022/07/23 13:40:54;;;;;;;5.45;2.00;;;25.60;99.20;;;;;;6218304;23;20012;-83
2022/07/23 13:43:22;;;;;;;4.30;1.77;;;25.90;98.90;;;;;;6217449;23;20476;-82
2022/07/23 13:45:48;;;;;;;5.88;1.98;;;26.20;98.60;;;;;;6246023;23;20059;-81
2022/07/23 13:48:14;;;;;;;5.90;1.90;;;26.30;98.00;;;;;;6254528;23;20030;-81
2022/07/23 13:50:42;;;;;;;6.15;2.20;;;26.40;97.90;;;;;;6226268;23;20016;-81
2022/07/23 13:53:11;;;;;;;5.95;2.17;;;26.60;97.50;;;;;;6219299;23;20063;-81
2022/07/23 13:55:38;;;;;;;6.95;2.13;;;26.20;97.10;;;;;;6219100;23;20103;-81
2022/07/23 13:58:04;;;;;;;5.57;1.90;;;25.60;96.80;;;;;;6218065;23;20100;-81
2022/07/23 14:00:31;;;;;;;6.80;2.10;;;25.20;97.90;;;;;;6246138;23;20008;-82
2022/07/23 14:02:57;;;;;;;6.53;2.20;;;25.10;98.40;;;;;;6245685;23;20016;-81
2022/07/23 14:05:23;;;;;;;6.22;2.10;;;25.10;97.90;;;;;;6244759;23;20027;-81
2022/07/23 14:07:51;;;;;;;4.57;1.80;;;25.00;98.50;;;;;;6218410;23;20016;-81
2022/07/23 14:10:18;;;;;;;4.93;1.90;;;25.40;98.70;;;;;;6246107;23;20016;-81
2022/07/23 14:12:44;;;;;;;5.40;2.05;;;25.70;98.50;;;;;;6244599;23;20027;-81
2022/07/23 14:15:10;;;;;;;5.90;2.13;;;25.80;98.30;;;;;;6218682;23;20039;-81
2022/07/23 14:17:37;;;;;;;7.43;2.10;;;26.10;98.50;;;;;;6245925;23;20329;-81
2022/07/23 14:20:05;;;;;;;7.65;2.20;;;26.00;97.70;;;;;;6244223;23;20142;-81
2022/07/23 14:22:31;;;;;;;5.28;1.92;;;26.00;97.40;;;;;;6218254;23;20049;-81
2022/07/23 14:24:58;;;;;;;6.32;2.10;;;25.80;97.20;;;;;;6244512;23;20027;-81
2022/07/23 14:27:24;;;;;;;6.80;2.10;;;25.80;97.40;;;;;;6217685;23;20016;-81
2022/07/23 14:29:50;;;;;;;5.43;1.95;;;25.90;97.30;;;;;;6244170;23;20026;-82
2022/07/23 14:32:16;;;;;;;5.47;2.03;;;26.00;97.60;;;;;;6216882;23;20095;-81
2022/07/23 14:34:41;;;;;;;6.32;2.20;;;25.70;97.30;;;;;;6218194;23;20039;-82
2022/07/23 14:37:07;;;;;;;6.15;2.20;;;25.50;97.70;;;;;;6244698;23;20019;-82
2022/07/23 14:39:33;;;;;;;6.13;2.10;;;24.90;97.80;;;;;;6217318;23;20019;-81
2022/07/23 14:41:58;;;;;;;5.65;2.08;;;24.70;98.20;;;;;;6218406;23;20130;-82
2022/07/23 14:44:24;;;;;;;5.05;1.98;;;25.00;98.60;;;;;;6218532;23;20350;-81
2022/07/23 14:46:50;;;;;;;7.25;2.20;;;25.20;98.00;;;;;;6244338;23;20020;-82
2022/07/23 14:49:16;;;;;;;6.45;2.20;;;25.50;98.10;;;;;;6245565;23;20392;-82
2022/07/23 14:51:43;;;;;;;5.65;2.13;;;25.50;97.80;;;;;;6218854;23;20109;-82
2022/07/23 14:54:09;;;;;;;5.65;2.10;;;25.50;97.60;;;;;;6216333;23;20075;-82
2022/07/23 14:56:36;;;;;;;5.85;2.10;;;25.50;97.70;;;;;;6245487;23;20012;-83
2022/07/23 14:59:02;;;;;;;8.13;2.17;;;25.50;97.70;;;;;;6217471;23;20027;-82
2022/07/23 15:01:28;;;;;;;6.72;2.10;;;25.80;97.70;;;;;;6217918;23;20020;-83
2022/07/23 15:03:54;;;;;;;6.00;2.20;;;25.40;97.20;;;;;;6217430;23;20063;-83
2022/07/23 15:06:19;;;;;;;6.07;2.15;;;25.10;97.60;;;;;;6220361;23;20075;-81
2022/07/23 15:08:45;;;;;;;6.47;2.20;;;25.10;97.70;;;;;;6222847;23;20388;-82
2022/07/23 15:11:11;;;;;;;4.93;2.00;;;25.10;97.70;;;;;;6244721;23;20016;-82
2022/07/23 15:13:38;;;;;;;6.00;2.10;;;25.00;97.80;;;;;;6217263;23;20024;-82
2022/07/23 15:16:05;;;;;;;8.07;2.20;;;24.90;98.20;;;;;;6216358;23;20457;-82
2022/07/23 15:18:30;;;;;;;9.15;2.30;;;24.90;98.10;;;;;;6218445;23;20095;-80
2022/07/23 15:20:56;;;;;;;6.90;2.22;;;24.90;98.30;;;;;;6244636;23;20044;-88
2022/07/23 15:23:22;;;;;;;9.00;2.22;;;24.90;97.90;;;;;;6217715;23;20047;-87
2022/07/23 15:25:48;;;;;;;6.75;2.17;;;24.50;98.10;;;;;;6246725;23;20043;-87
2022/07/23 15:28:14;;;;;;;6.07;2.25;;;24.60;98.40;;;;;;6218341;23;20085;-85
2022/07/23 15:30:39;;;;;;;6.28;2.20;;;24.50;98.20;;;;;;6217961;23;20444;-84
2022/07/23 15:33:08;;;;;;;7.80;2.55;;;24.40;98.10;;;;;;6244748;23;20055;-85
2022/07/23 15:35:34;;;;;;;6.93;2.42;;;24.20;98.40;;;;;;6219697;23;20016;-85
2022/07/23 15:37:59;;;;;;;5.47;2.10;;;24.40;98.40;;;;;;6246784;23;20491;-84
2022/07/23 15:40:25;;;;;;;7.20;2.30;;;24.60;98.70;;;;;;6247617;23;20055;-85
2022/07/23 15:42:51;;;;;;;7.13;2.10;;;24.70;98.40;;;;;;6221147;23;20016;-85
2022/07/23 15:45:16;;;;;;;6.13;2.00;;;24.80;98.40;;;;;;6248110;23;20066;-84